Time;durP1;ratioP1;P1;durP2;ratioP2;P2;SDS_P1;SDS_P2;PMS_P1;PMS_P2;Temp;Humidity;BMP_temperature;BMP_pressure;BME280_temperature;BME280_humidity;BME280_pressure;Samples;Min_cycle;Max_cycle;Signal;HPM_P1;HPM_P2
2022/11/04 00:01:48;;;;;;;7.85;3.90;;;11.40;99.90;;;;;;5027950;28;20533;-70
2022/11/04 00:04:16;;;;;;;6.65;3.50;;;11.40;99.90;;;;;;5030053;28;20052;-70
2022/11/04 00:06:42;;;;;;;6.53;3.75;;;11.30;99.90;;;;;;5045916;28;20437;-70
2022/11/04 00:09:11;;;;;;;8.95;4.03;;;11.30;99.90;;;;;;5047423;28;20049;-70
2022/11/04 00:14:21;;;;;;;5.18;2.10;;;11.10;99.90;;;;;;5042368;28;20084;-70
2022/11/04 00:30:28;;;;;;;1.88;0.80;;;10.80;99.90;;;;;;5034001;28;20112;-71
2022/11/04 00:35:39;;;;;;;1.98;0.85;;;10.80;99.90;;;;;;5042550;28;20271;-70
2022/11/04 00:38:04;;;;;;;1.13;0.88;;;10.80;99.90;;;;;;5080453;28;20041;-70
2022/11/04 00:40:30;;;;;;;1.15;0.70;;;10.70;99.90;;;;;;5048919;28;20658;-71
2022/11/04 00:42:55;;;;;;;0.75;0.63;;;10.70;99.90;;;;;;5037982;28;20434;-71
2022/11/04 00:45:21;;;;;;;2.05;1.15;;;10.80;99.90;;;;;;5031178;28;20053;-71
2022/11/04 00:47:47;;;;;;;1.02;0.57;;;10.70;99.90;;;;;;5030240;28;20046;-71
2022/11/04 00:50:12;;;;;;;0.68;0.60;;;10.70;99.90;;;;;;5029345;28;20056;-71
2022/11/04 00:52:38;;;;;;;0.55;0.50;;;10.70;99.90;;;;;;5028931;28;20057;-71
2022/11/04 00:55:04;;;;;;;2.70;0.88;;;10.70;99.90;;;;;;5036699;28;20053;-71
2022/11/04 00:57:30;;;;;;;1.10;0.57;;;10.70;99.90;;;;;;5031187;28;20057;-71
2022/11/04 00:59:56;;;;;;;;;;;10.60;99.90;;;;;;5029150;28;20429;-72
2022/11/04 01:02:22;;;;;;;0.57;0.57;;;10.60;99.90;;;;;;5030195;28;19928;-71
2022/11/04 01:04:47;;;;;;;0.63;0.45;;;10.60;99.90;;;;;;5030122;28;20368;-71
2022/11/04 01:07:13;;;;;;;0.90;0.60;;;10.60;99.90;;;;;;5028440;28;20052;-72
2022/11/04 01:09:39;;;;;;;1.27;0.65;;;10.50;99.90;;;;;;5031484;28;20044;-71
2022/11/04 01:12:04;;;;;;;3.15;0.82;;;10.50;99.90;;;;;;5045456;28;20444;-71
2022/11/04 01:14:30;;;;;;;0.85;0.70;;;10.50;99.90;;;;;;5053719;28;20482;-71
2022/11/04 01:16:56;;;;;;;1.10;0.65;;;10.40;99.90;;;;;;5052502;28;20048;-72
2022/11/04 01:19:22;;;;;;;1.55;0.90;;;10.40;99.90;;;;;;5053178;28;20095;-71
2022/11/04 01:21:51;;;;;;;0.57;0.57;;;10.40;99.90;;;;;;5049472;28;20048;-71
2022/11/04 01:24:18;;;;;;;0.60;0.60;;;10.40;99.90;;;;;;5032111;28;20040;-71
2022/11/04 01:26:44;;;;;;;0.88;0.65;;;10.40;99.90;;;;;;5064748;28;20506;-71
2022/11/04 01:29:09;;;;;;;0.60;0.60;;;10.40;99.90;;;;;;5050370;28;20585;-71
2022/11/04 01:31:35;;;;;;;1.40;0.68;;;10.30;99.90;;;;;;5053627;28;20079;-71
2022/11/04 01:34:01;;;;;;;1.23;0.75;;;10.30;99.90;;;;;;5047150;28;20057;-71
2022/11/04 01:36:27;;;;;;;3.75;0.80;;;10.30;99.90;;;;;;5043998;28;20084;-71
2022/11/04 01:38:56;;;;;;;;;;;10.30;99.90;;;;;;5036421;28;20490;-71
2022/11/04 01:41:23;;;;;;;1.83;0.85;;;10.20;99.90;;;;;;5034643;28;19976;-72
2022/11/04 01:43:58;;;;;;;0.77;0.60;;;10.20;99.90;;;;;;5033110;28;20532;-71
2022/11/04 01:46:45;;;;;;;3.88;0.90;;;10.20;99.90;;;;;;5033162;28;20053;-72
2022/11/04 01:49:25;;;;;;;1.92;1.08;;;10.30;99.90;;;;;;5032526;28;20458;-72
2022/11/04 01:51:56;;;;;;;3.58;1.20;;;10.20;99.90;;;;;;5045482;28;20075;-71
2022/11/04 01:54:22;;;;;;;1.27;0.80;;;10.30;99.90;;;;;;5051616;28;20059;-72
2022/11/04 01:56:48;;;;;;;1.45;1.10;;;10.30;99.90;;;;;;5042989;28;20045;-72
2022/11/04 01:59:25;;;;;;;3.08;1.10;;;10.30;99.90;;;;;;5034514;28;20061;-72
2022/11/04 02:01:50;;;;;;;;;;;10.30;99.90;;;;;;5038619;28;20049;-72
2022/11/04 02:04:25;;;;;;;2.38;1.05;;;10.30;99.90;;;;;;5032159;28;19925;-71
2022/11/04 02:06:55;;;;;;;3.90;1.30;;;10.30;99.90;;;;;;5039010;28;20037;-71
2022/11/04 02:09:23;;;;;;;3.20;1.48;;;10.40;99.90;;;;;;5048216;28;20053;-71
2022/11/04 02:14:34;;;;;;;6.70;2.45;;;10.40;99.90;;;;;;5031988;28;20056;-71
2022/11/04 02:17:17;;;;;;;56.88;2.72;;;10.40;99.90;;;;;;5032185;28;20041;-74
2022/11/04 02:20:02;;;;;;;4.70;1.88;;;10.40;99.90;;;;;;5033729;28;20172;-77
2022/11/04 02:22:28;;;;;;;5.80;2.58;;;10.30;99.90;;;;;;5030630;28;20049;-76
2022/11/04 02:25:18;;;;;;;8.98;3.28;;;10.30;99.90;;;;;;5041889;28;20057;-76
2022/11/04 02:28:03;;;;;;;6.55;3.30;;;10.30;99.90;;;;;;5032132;28;20069;-76
2022/11/04 02:30:53;;;;;;;8.68;3.05;;;10.30;99.90;;;;;;5030657;28;20495;-75
2022/11/04 02:33:24;;;;;;;12.30;3.90;;;10.30;99.90;;;;;;5051615;28;20057;-77
2022/11/04 02:36:06;;;;;;;6.97;3.25;;;10.40;99.90;;;;;;5033789;28;20052;-78
2022/11/04 02:38:44;;;;;;;9.68;3.65;;;10.40;99.90;;;;;;5051213;28;20102;-79
2022/11/04 02:41:15;;;;;;;7.40;3.70;;;10.30;99.90;;;;;;5037964;28;20060;-73
2022/11/04 02:44:10;;;;;;;9.75;3.40;;;10.30;99.90;;;;;;5044591;28;20478;-73
2022/11/04 02:46:59;;;;;;;11.13;3.33;;;10.30;99.90;;;;;;5035633;28;20103;-74
2022/11/04 02:49:39;;;;;;;8.55;3.97;;;10.30;99.90;;;;;;5054479;28;20144;-74
2022/11/04 02:52:09;;;;;;;8.48;3.60;;;10.30;99.90;;;;;;5030570;28;20057;-73
2022/11/04 02:54:59;;;;;;;19.27;4.00;;;10.20;99.90;;;;;;5032217;28;20052;-76
2022/11/04 02:57:35;;;;;;;13.57;3.95;;;10.30;99.90;;;;;;5030309;28;20099;-73
2022/11/04 03:00:05;;;;;;;9.18;3.80;;;10.20;99.90;;;;;;5030903;28;20562;-75
2022/11/04 03:02:38;;;;;;;10.45;3.83;;;10.20;99.90;;;;;;5047958;28;20057;-76
2022/11/04 03:05:07;;;;;;;9.90;3.75;;;10.20;99.90;;;;;;5028189;28;20053;-77
2022/11/04 03:07:37;;;;;;;8.35;3.65;;;10.10;99.90;;;;;;5050038;28;20080;-76
2022/11/04 03:10:11;;;;;;;8.32;3.40;;;10.10;99.90;;;;;;5051176;28;20053;-76
2022/11/04 03:12:55;;;;;;;7.70;3.20;;;10.00;99.90;;;;;;5030911;28;20052;-77
2022/11/04 03:15:27;;;;;;;5.60;2.55;;;10.00;99.90;;;;;;5046917;28;20144;-76
2022/11/04 03:18:12;;;;;;;6.60;2.63;;;10.00;99.90;;;;;;5067337;28;20495;-77
2022/11/04 03:20:39;;;;;;;10.75;3.50;;;10.00;99.90;;;;;;5058601;28;20123;-78
2022/11/04 03:23:05;;;;;;;9.68;3.53;;;9.90;99.90;;;;;;5069288;28;20057;-78
2022/11/04 03:25:37;;;;;;;11.27;3.50;;;9.90;99.90;;;;;;5049298;28;20053;-78
2022/11/04 03:28:31;;;;;;;6.75;3.25;;;10.10;99.90;;;;;;5030517;28;20049;-78
2022/11/04 03:31:00;;;;;;;8.05;2.63;;;9.90;99.90;;;;;;5013353;28;20045;-78
2022/11/04 03:33:53;;;;;;;6.28;2.50;;;9.90;99.90;;;;;;5042698;28;20083;-77
2022/11/04 03:36:22;;;;;;;7.50;2.22;;;9.90;99.90;;;;;;5037525;28;20065;-78
2022/11/04 03:38:49;;;;;;;4.40;2.28;;;9.80;99.90;;;;;;5048629;28;20562;-79
2022/11/04 03:41:37;;;;;;;5.97;2.42;;;9.90;99.90;;;;;;5082915;28;20053;-83
2022/11/04 03:44:03;;;;;;;6.65;2.58;;;9.80;99.90;;;;;;5049658;28;20053;-75
2022/11/04 03:46:29;;;;;;;5.57;2.45;;;9.90;99.90;;;;;;5049294;28;20195;-74
2022/11/04 03:48:56;;;;;;;6.45;2.72;;;9.90;99.90;;;;;;5049880;28;20049;-76
2022/11/04 03:51:22;;;;;;;5.28;2.53;;;9.90;99.90;;;;;;5039291;28;20449;-77
2022/11/04 03:53:48;;;;;;;8.07;2.20;;;9.90;99.90;;;;;;5029886;28;20049;-76
2022/11/04 03:56:32;;;;;;;4.55;1.83;;;9.80;99.90;;;;;;5040539;28;20056;-79
2022/11/04 03:59:21;;;;;;;5.28;1.80;;;9.80;99.90;;;;;;5049374;28;20057;-80
2022/11/04 04:01:49;;;;;;;4.20;1.83;;;9.80;99.90;;;;;;5049918;28;20044;-80
2022/11/04 04:04:18;;;;;;;3.03;1.48;;;9.70;99.90;;;;;;5046811;28;20056;-79
2022/11/04 04:06:45;;;;;;;2.10;1.40;;;9.70;99.90;;;;;;5033010;28;20087;-80
2022/11/04 04:09:44;;;;;;;7.75;1.30;;;9.60;99.90;;;;;;5032081;28;20061;-81
2022/11/04 04:12:19;;;;;;;4.20;0.90;;;9.60;99.90;;;;;;5021886;28;20065;-78
2022/11/04 04:14:56;;;;;;;6.32;1.17;;;9.70;99.90;;;;;;5045656;28;20136;-80
2022/11/04 04:17:33;;;;;;;2.78;0.60;;;9.50;99.90;;;;;;5050073;28;20037;-74
2022/11/04 04:20:17;;;;;;;0.73;0.68;;;9.40;99.90;;;;;;5033731;28;20067;-76
2022/11/04 04:22:45;;;;;;;0.50;0.50;;;9.40;99.90;;;;;;5029425;28;20046;-78
2022/11/04 04:27:59;;;;;;;1.08;1.00;;;9.30;99.90;;;;;;5049513;28;20139;-75
2022/11/04 04:30:25;;;;;;;2.90;0.50;;;9.20;99.90;;;;;;5029962;28;20140;-75
2022/11/04 04:32:54;;;;;;;;;;;9.20;99.90;;;;;;5030033;28;20065;-75
2022/11/04 04:35:42;;;;;;;3.53;0.70;;;9.20;99.90;;;;;;5026318;28;19921;-75
2022/11/04 04:47:20;;;;;;;0.73;0.70;;;9.20;99.90;;;;;;5029558;28;20399;-75
2022/11/04 04:49:52;;;;;;;2.50;0.80;;;9.20;99.90;;;;;;5032159;28;20727;-75
2022/11/04 04:52:19;;;;;;;2.25;0.80;;;9.20;99.90;;;;;;5039724;28;20063;-74
2022/11/04 04:54:45;;;;;;;4.90;0.80;;;9.20;99.90;;;;;;5054081;28;20084;-75
2022/11/04 04:57:10;;;;;;;1.05;0.85;;;9.20;99.90;;;;;;5053342;28;20095;-75
2022/11/04 04:59:36;;;;;;;1.00;0.80;;;9.20;99.90;;;;;;5051960;28;20048;-75
2022/11/04 05:02:02;;;;;;;4.40;1.20;;;9.20;99.90;;;;;;5053186;28;20487;-74
2022/11/04 05:04:28;;;;;;;3.10;1.10;;;9.20;99.90;;;;;;5083846;28;20054;-74
2022/11/04 05:06:54;;;;;;;1.98;1.00;;;9.20;99.90;;;;;;5052434;28;20140;-74
2022/11/04 05:09:20;;;;;;;2.15;1.08;;;9.20;99.90;;;;;;5046813;28;20049;-74
2022/11/04 05:11:45;;;;;;;2.58;1.20;;;9.20;99.90;;;;;;5040915;28;20049;-74
2022/11/04 05:14:11;;;;;;;2.90;1.10;;;9.30;99.90;;;;;;5085998;28;20056;-74
2022/11/04 05:16:37;;;;;;;1.00;0.90;;;9.20;99.90;;;;;;5053322;28;20041;-74
2022/11/04 05:19:02;;;;;;;1.15;1.00;;;9.20;99.90;;;;;;5033574;28;20128;-74
2022/11/04 05:21:28;;;;;;;1.92;1.17;;;9.20;99.90;;;;;;5032728;28;20099;-74
2022/11/04 05:23:54;;;;;;;4.05;1.40;;;9.20;99.90;;;;;;5065657;28;20049;-74
2022/11/04 05:26:20;;;;;;;2.40;1.05;;;9.20;99.90;;;;;;5033041;28;20050;-74
2022/11/04 05:28:45;;;;;;;0.98;0.73;;;9.10;99.90;;;;;;5057253;28;20045;-74
2022/11/04 05:31:11;;;;;;;2.67;0.80;;;9.10;99.90;;;;;;5043632;28;20419;-74
2022/11/04 05:33:37;;;;;;;0.73;0.73;;;9.00;99.90;;;;;;5048638;28;20041;-74
2022/11/04 05:36:11;;;;;;;1.60;0.68;;;9.00;99.90;;;;;;5050267;28;20045;-74
2022/11/04 05:38:38;;;;;;;2.33;0.60;;;8.90;99.90;;;;;;5051340;28;20065;-74
2022/11/04 05:41:05;;;;;;;2.25;0.70;;;8.90;99.90;;;;;;5051527;28;20069;-74
2022/11/04 05:43:31;;;;;;;2.35;1.08;;;8.80;99.90;;;;;;5052481;28;20060;-74
2022/11/04 05:45:57;;;;;;;;;;;8.70;99.90;;;;;;5051831;28;20095;-74
2022/11/04 05:48:23;;;;;;;1.25;0.70;;;8.70;99.90;;;;;;5046921;28;20349;-74
2022/11/04 05:50:48;;;;;;;1.63;0.98;;;8.60;99.90;;;;;;5051199;28;20045;-74
2022/11/04 05:53:14;;;;;;;2.88;0.60;;;8.60;99.90;;;;;;5052282;28;20053;-74
2022/11/04 05:55:40;;;;;;;0.70;0.50;;;8.60;99.90;;;;;;5050480;28;20059;-74
2022/11/04 05:58:06;;;;;;;1.95;0.70;;;8.60;99.90;;;;;;5051812;28;20059;-74
2022/11/04 06:00:31;;;;;;;0.70;0.70;;;8.50;99.90;;;;;;5049443;28;20092;-74
2022/11/04 06:02:57;;;;;;;2.22;0.73;;;8.50;99.90;;;;;;5035428;28;20055;-74
2022/11/04 06:05:24;;;;;;;0.60;0.60;;;8.50;99.90;;;;;;5049057;28;20085;-74
2022/11/04 06:07:49;;;;;;;1.83;0.90;;;8.40;99.90;;;;;;5052995;28;20053;-74
2022/11/04 06:10:15;;;;;;;1.38;0.85;;;8.40;99.90;;;;;;5053282;28;20555;-74
2022/11/04 06:12:41;;;;;;;1.08;0.70;;;8.30;99.90;;;;;;5052068;28;20041;-74
2022/11/04 06:15:07;;;;;;;1.35;0.55;;;8.30;99.90;;;;;;5048756;28;20061;-74
2022/11/04 06:17:33;;;;;;;0.90;0.73;;;8.30;99.90;;;;;;5050717;28;20053;-74
2022/11/04 06:19:59;;;;;;;2.83;1.00;;;8.20;99.90;;;;;;5032893;28;20485;-74
2022/11/04 06:22:24;;;;;;;1.70;1.00;;;8.20;99.90;;;;;;5084901;28;20057;-74
2022/11/04 06:24:50;;;;;;;2.70;1.30;;;8.10;99.90;;;;;;5084878;28;20059;-74
2022/11/04 06:27:16;;;;;;;1.67;1.20;;;8.10;99.90;;;;;;5051341;28;20068;-74
2022/11/04 06:29:41;;;;;;;3.42;1.60;;;8.10;99.90;;;;;;5040573;28;20048;-74
2022/11/04 06:32:13;;;;;;;3.22;1.58;;;8.10;99.90;;;;;;5050578;28;20107;-74
2022/11/04 06:34:39;;;;;;;4.15;1.55;;;8.10;99.90;;;;;;5040647;28;20050;-74
2022/11/04 06:37:06;;;;;;;3.83;1.90;;;8.20;99.90;;;;;;5040238;28;20064;-74
2022/11/04 06:39:31;;;;;;;2.88;1.52;;;8.30;99.90;;;;;;5051658;28;20049;-74
2022/11/04 06:41:57;;;;;;;3.22;1.73;;;8.30;99.90;;;;;;5051319;28;20044;-74
2022/11/04 06:44:23;;;;;;;3.40;1.70;;;8.40;99.90;;;;;;5050598;28;20059;-74
2022/11/04 06:46:49;;;;;;;4.68;1.58;;;8.40;99.90;;;;;;5047610;28;20080;-74
2022/11/04 06:49:18;;;;;;;1.73;1.30;;;8.50;99.90;;;;;;5048739;28;20057;-74
2022/11/04 06:51:45;;;;;;;3.97;1.40;;;8.50;99.90;;;;;;5038015;28;20052;-74
2022/11/04 06:54:11;;;;;;;4.32;1.42;;;8.50;99.90;;;;;;5047258;28;20067;-74
2022/11/04 06:56:36;;;;;;;2.15;1.38;;;8.60;99.90;;;;;;5031467;28;20438;-74
2022/11/04 06:59:02;;;;;;;2.20;1.33;;;8.60;99.90;;;;;;5063830;28;20125;-74
2022/11/04 07:01:31;;;;;;;3.75;1.55;;;8.60;99.90;;;;;;5030570;28;20558;-75
2022/11/04 07:03:58;;;;;;;2.97;1.50;;;8.50;99.90;;;;;;5039371;28;20081;-75
2022/11/04 07:06:26;;;;;;;2.97;1.42;;;8.50;99.90;;;;;;5039335;28;20080;-75
2022/11/04 07:08:52;;;;;;;3.88;1.50;;;8.40;99.90;;;;;;5034078;28;20085;-75
2022/11/04 07:11:20;;;;;;;2.72;1.55;;;8.40;99.90;;;;;;5046874;28;20111;-75
2022/11/04 07:13:47;;;;;;;3.15;1.40;;;8.40;99.90;;;;;;5063048;28;20080;-76
2022/11/04 07:16:14;;;;;;;3.17;1.50;;;8.30;99.90;;;;;;5030450;28;20402;-75
2022/11/04 07:18:40;;;;;;;2.88;1.30;;;8.30;99.90;;;;;;5063055;28;20111;-75
2022/11/04 07:21:07;;;;;;;2.67;1.38;;;8.20;99.90;;;;;;5035606;28;20588;-75
2022/11/04 07:23:33;;;;;;;4.25;1.40;;;8.30;99.90;;;;;;5047865;28;20135;-75
2022/11/04 07:26:03;;;;;;;;;;;8.20;99.90;;;;;;5031829;28;20053;-75
2022/11/04 07:28:29;;;;;;;5.68;1.88;;;8.20;99.90;;;;;;5030191;28;19921;-76
2022/11/04 07:30:57;;;;;;;3.58;1.65;;;8.10;99.90;;;;;;5078443;28;20525;-75
2022/11/04 07:33:23;;;;;;;4.55;1.92;;;8.20;99.90;;;;;;5050427;28;20061;-75
2022/11/04 07:35:49;;;;;;;6.22;2.50;;;8.20;99.90;;;;;;5047025;28;20041;-75
2022/11/04 07:38:15;;;;;;;6.65;2.80;;;8.20;99.90;;;;;;5048709;28;20056;-75
2022/11/04 07:40:40;;;;;;;7.40;2.95;;;8.30;99.90;;;;;;5045691;28;20052;-75
2022/11/04 07:43:06;;;;;;;7.80;3.13;;;8.30;99.90;;;;;;5033661;28;20044;-75
2022/11/04 07:45:32;;;;;;;8.25;4.05;;;8.30;99.90;;;;;;5032277;28;20045;-76
2022/11/04 07:47:57;;;;;;;12.75;4.32;;;8.40;99.90;;;;;;5050045;28;20571;-75
2022/11/04 07:50:23;;;;;;;11.38;4.88;;;8.40;99.90;;;;;;5047892;28;20049;-75
2022/11/04 07:52:49;;;;;;;12.98;4.72;;;8.40;99.90;;;;;;5049455;28;20072;-75
2022/11/04 07:55:17;;;;;;;;;;;8.40;99.90;;;;;;5066885;28;20446;-75
2022/11/04 07:57:46;;;;;;;18.05;6.05;;;8.40;99.90;;;;;;5048993;28;19925;-75
2022/11/04 08:00:14;;;;;;;17.10;6.45;;;8.50;99.90;;;;;;5049226;28;20126;-75
2022/11/04 08:02:41;;;;;;;23.70;7.45;;;8.50;99.90;;;;;;5045097;28;20041;-75
2022/11/04 08:05:07;;;;;;;21.02;6.63;;;8.60;99.90;;;;;;5047303;28;20057;-75
2022/11/04 08:07:32;;;;;;;20.80;7.70;;;8.70;99.90;;;;;;5047829;28;20059;-75
2022/11/04 08:09:58;;;;;;;17.58;7.13;;;8.80;99.90;;;;;;5050169;28;20040;-71
2022/11/04 08:12:24;;;;;;;20.27;8.48;;;8.80;99.90;;;;;;5049713;28;20135;-72
2022/11/04 08:14:50;;;;;;;23.63;7.18;;;8.90;99.90;;;;;;5048592;28;20049;-71
2022/11/04 08:17:16;;;;;;;21.92;8.90;;;9.10;99.90;;;;;;5050540;28;20037;-68
2022/11/04 08:19:42;;;;;;;21.25;8.57;;;9.20;99.90;;;;;;5042479;28;20049;-66
2022/11/04 08:22:08;;;;;;;21.40;8.20;;;9.20;99.90;;;;;;5048534;28;20049;-67
2022/11/04 08:24:34;;;;;;;21.35;8.75;;;9.30;99.90;;;;;;5049917;28;20041;-75
2022/11/04 08:27:00;;;;;;;22.80;9.02;;;9.40;99.90;;;;;;5032332;28;20049;-76
2022/11/04 08:29:26;;;;;;;;;;;9.40;99.90;;;;;;5031388;28;20457;-75
2022/11/04 08:31:52;;;;;;;19.33;7.32;;;9.30;99.90;;;;;;5048775;28;19929;-75
2022/11/04 08:34:17;;;;;;;15.48;6.30;;;9.40;99.90;;;;;;5041176;28;20052;-77
2022/11/04 08:36:44;;;;;;;13.82;6.25;;;9.30;99.90;;;;;;5038694;28;21241;-76
2022/11/04 08:39:10;;;;;;;18.67;6.93;;;9.20;99.90;;;;;;5035401;28;20041;-76
2022/11/04 08:41:39;;;;;;;22.30;7.38;;;9.30;99.90;;;;;;5028839;28;20041;-76
2022/11/04 08:44:05;;;;;;;24.65;8.10;;;9.30;99.90;;;;;;5069524;28;20088;-76
2022/11/04 08:46:35;;;;;;;21.27;8.68;;;9.40;99.90;;;;;;5042783;28;20398;-76
2022/11/04 08:49:01;;;;;;;26.83;8.77;;;9.50;99.90;;;;;;5038882;28;20486;-76
2022/11/04 08:51:27;;;;;;;22.13;9.32;;;9.60;99.90;;;;;;5038362;28;20044;-76
2022/11/04 08:53:53;;;;;;;20.30;7.82;;;9.60;99.90;;;;;;5040532;28;20055;-76
2022/11/04 08:56:22;;;;;;;17.83;7.53;;;9.50;99.90;;;;;;5039394;28;20120;-76
2022/11/04 08:58:48;;;;;;;16.67;7.05;;;9.60;99.90;;;;;;5045584;28;20076;-76
2022/11/04 09:01:15;;;;;;;18.55;7.15;;;9.60;99.90;;;;;;5036858;28;20128;-76
2022/11/04 09:03:41;;;;;;;16.95;7.45;;;9.60;99.90;;;;;;5030089;28;20056;-76
2022/11/04 09:06:11;;;;;;;18.50;7.57;;;9.70;99.90;;;;;;5039126;28;20045;-76
2022/11/04 09:08:38;;;;;;;18.02;6.78;;;9.70;99.90;;;;;;5044077;28;20056;-76
2022/11/04 09:11:09;;;;;;;13.98;7.07;;;9.80;99.90;;;;;;5047334;28;20044;-76
2022/11/04 09:13:35;;;;;;;19.95;7.60;;;9.80;99.90;;;;;;5048487;28;20056;-75
2022/11/04 09:16:01;;;;;;;17.85;6.70;;;9.80;99.90;;;;;;5047313;28;20341;-76
2022/11/04 09:18:27;;;;;;;17.30;7.57;;;9.80;99.90;;;;;;5047662;28;20045;-76
2022/11/04 09:20:53;;;;;;;19.67;8.13;;;9.80;99.90;;;;;;5044335;28;20063;-77
2022/11/04 09:23:19;;;;;;;19.95;8.05;;;9.80;99.90;;;;;;5047441;28;20048;-76
2022/11/04 09:25:44;;;;;;;19.38;8.07;;;9.80;99.90;;;;;;5046049;28;20578;-78
2022/11/04 09:28:11;;;;;;;25.00;8.40;;;9.80;99.90;;;;;;5044775;28;20080;-77
2022/11/04 09:30:37;;;;;;;21.75;8.90;;;9.80;99.90;;;;;;5043995;28;20556;-78
2022/11/04 09:33:03;;;;;;;25.23;8.10;;;9.90;99.90;;;;;;5045602;28;20731;-77
2022/11/04 09:35:29;;;;;;;;;;;10.00;99.90;;;;;;5046878;28;20483;-78
2022/11/04 09:37:55;;;;;;;25.42;10.05;;;10.10;99.90;;;;;;5050666;28;19936;-76
2022/11/04 09:40:23;;;;;;;21.30;9.30;;;10.10;99.90;;;;;;5031722;28;20049;-77
2022/11/04 09:43:04;;;;;;;23.23;9.80;;;10.10;99.90;;;;;;5031458;28;20459;-77
2022/11/04 09:45:32;;;;;;;24.67;9.43;;;10.20;99.90;;;;;;5059811;28;20151;-77
2022/11/04 09:48:02;;;;;;;22.60;9.18;;;10.20;99.90;;;;;;5041145;28;20044;-76
2022/11/04 09:50:40;;;;;;;25.40;10.38;;;10.30;99.90;;;;;;5049563;28;20049;-77
2022/11/04 09:53:21;;;;;;;31.00;11.55;;;10.40;99.90;;;;;;5048894;28;20135;-79
2022/11/04 09:55:58;;;;;;;28.15;9.65;;;10.60;99.90;;;;;;5030306;28;20072;-78
2022/11/04 09:58:23;;;;;;;19.95;9.40;;;10.80;99.90;;;;;;5051518;28;20118;-75
2022/11/04 10:01:00;;;;;;;26.17;10.63;;;10.80;99.90;;;;;;5083551;28;20049;-76
2022/11/04 10:03:46;;;;;;;;;;;10.90;99.90;;;;;;5037974;28;20049;-79
2022/11/04 10:06:35;;;;;;;23.20;9.70;;;10.90;99.90;;;;;;4995997;28;19975;-77
2022/11/04 10:09:26;;;;;;;23.30;10.05;;;10.90;99.90;;;;;;5040358;28;20053;-77
2022/11/04 10:12:08;;;;;;;22.88;10.07;;;10.80;99.90;;;;;;5035832;28;20171;-77
2022/11/04 10:14:52;;;;;;;24.90;10.68;;;10.80;99.90;;;;;;5081765;28;20053;-77
2022/11/04 10:17:26;;;;;;;26.45;9.93;;;10.70;99.90;;;;;;5039552;28;20103;-77
2022/11/04 10:20:14;;;;;;;24.25;10.63;;;10.80;99.90;;;;;;5033594;28;20052;-77
2022/11/04 10:22:49;;;;;;;25.17;9.82;;;10.80;99.90;;;;;;5079890;28;20334;-77
2022/11/04 10:25:20;;;;;;;28.52;10.65;;;10.80;99.90;;;;;;5039091;28;20107;-77
2022/11/04 10:27:47;;;;;;;26.60;10.32;;;11.00;99.90;;;;;;5061858;28;20543;-77
2022/11/04 10:30:21;;;;;;;23.48;9.85;;;11.30;99.90;;;;;;5031867;28;20045;-77
2022/11/04 10:33:12;;;;;;;20.35;9.10;;;11.30;99.90;;;;;;5077358;28;20057;-77
2022/11/04 10:35:59;;;;;;;21.45;10.55;;;11.40;99.90;;;;;;5037852;28;20064;-77
2022/11/04 10:38:30;;;;;;;25.95;11.23;;;11.60;99.90;;;;;;5034489;28;20045;-77
2022/11/04 10:40:56;;;;;;;24.27;10.07;;;11.80;99.90;;;;;;5030483;28;20057;-77
2022/11/04 10:43:37;;;;;;;23.63;10.57;;;12.00;99.90;;;;;;5032144;28;20057;-77
2022/11/04 10:46:19;;;;;;;26.05;10.27;;;12.30;99.90;;;;;;5028990;28;20053;-77
2022/11/04 10:49:01;;;;;;;21.35;8.80;;;12.70;99.90;;;;;;5030576;28;20132;-77
2022/11/04 10:51:27;;;;;;;23.42;9.65;;;12.90;99.90;;;;;;5039215;28;20049;-77
2022/11/04 10:53:58;;;;;;;21.80;9.80;;;13.00;99.90;;;;;;5040239;28;20471;-77
2022/11/04 10:56:49;;;;;;;18.80;7.55;;;13.10;99.90;;;;;;5038456;28;20495;-77
2022/11/04 10:59:45;;;;;;;20.27;8.65;;;13.10;99.90;;;;;;5044115;28;20597;-77
2022/11/04 11:02:11;;;;;;;26.08;8.68;;;13.10;99.90;;;;;;5070661;28;20127;-79
2022/11/04 11:04:39;;;;;;;18.17;8.52;;;13.10;99.90;;;;;;5062190;28;20124;-78
2022/11/04 11:07:10;;;;;;;20.00;8.20;;;13.20;99.90;;;;;;5035741;28;20058;-77
2022/11/04 11:09:45;;;;;;;18.73;8.77;;;13.40;99.90;;;;;;5037137;28;20085;-75
2022/11/04 11:12:14;;;;;;;16.38;8.25;;;13.50;99.90;;;;;;5042997;28;20032;-76
2022/11/04 11:14:41;;;;;;;18.60;8.75;;;13.50;99.90;;;;;;5043234;28;20081;-75
2022/11/04 11:17:37;;;;;;;18.67;7.43;;;13.90;99.90;;;;;;5031955;28;20612;-76
2022/11/04 11:20:20;;;;;;;14.55;7.22;;;14.60;99.90;;;;;;5028974;28;20050;-76
2022/11/04 11:22:47;;;;;;;14.95;7.28;;;15.20;99.90;;;;;;5030673;28;20049;-77
2022/11/04 11:25:29;;;;;;;14.63;7.22;;;15.60;99.90;;;;;;5033597;28;20045;-77
2022/11/04 11:28:04;;;;;;;13.40;7.05;;;16.00;99.90;;;;;;5029509;28;20057;-76
2022/11/04 11:30:45;;;;;;;14.55;7.00;;;16.40;99.90;;;;;;5046329;28;20103;-75
2022/11/04 11:33:22;;;;;;;15.77;6.40;;;17.10;99.90;;;;;;5030400;28;20049;-74
2022/11/04 11:35:52;;;;;;;12.85;6.55;;;17.40;99.90;;;;;;5028080;28;20065;-75
2022/11/04 11:38:24;;;;;;;13.32;6.18;;;17.50;99.90;;;;;;5030392;28;20084;-74
2022/11/04 11:40:51;;;;;;;14.18;6.60;;;17.40;99.90;;;;;;5030977;28;20053;-75
2022/11/04 11:43:29;;;;;;;13.23;5.97;;;17.50;99.90;;;;;;5029875;28;20046;-75
2022/11/04 11:45:58;;;;;;;14.75;6.60;;;17.90;99.90;;;;;;5028700;28;20041;-75
2022/11/04 11:48:42;;;;;;;11.57;5.97;;;18.50;99.90;;;;;;5045619;28;20060;-74
2022/11/04 11:51:13;;;;;;;12.40;6.05;;;18.90;99.90;;;;;;5046592;28;20510;-74
2022/11/04 11:53:44;;;;;;;11.70;5.68;;;19.30;99.90;;;;;;5042519;28;20081;-74
2022/11/04 11:56:28;;;;;;;14.27;5.60;;;19.70;99.90;;;;;;5029119;28;20118;-74
2022/11/04 11:59:42;;;;;;;11.32;5.60;;;20.30;99.90;;;;;;5030030;28;20506;-75
2022/11/04 12:02:32;;;;;;;10.13;5.45;;;20.70;99.90;;;;;;5053088;28;20064;-76
2022/11/04 12:04:59;;;;;;;10.80;5.82;;;20.90;99.90;;;;;;5032707;28;20037;-74
2022/11/04 12:07:37;;;;;;;10.43;5.55;;;20.70;99.90;;;;;;5016280;28;20045;-74
2022/11/04 12:10:16;;;;;;;12.13;6.35;;;20.60;99.90;;;;;;5028574;28;20103;-74
2022/11/04 12:13:00;;;;;;;9.50;5.15;;;20.80;99.90;;;;;;5038767;28;20057;-74
2022/11/04 12:15:33;;;;;;;8.52;5.00;;;21.30;99.90;;;;;;5050447;28;20102;-73
2022/11/04 12:18:17;;;;;;;10.45;4.93;;;21.90;99.90;;;;;;5048977;28;20072;-73
2022/11/04 12:21:32;;;;;;;10.25;4.40;;;22.40;99.90;;;;;;5046296;28;20041;-74
2022/11/04 12:24:26;;;;;;;10.38;5.40;;;22.50;99.90;;;;;;5029833;28;20053;-73
2022/11/04 12:27:12;;;;;;;12.25;5.38;;;21.70;99.90;;;;;;5028571;28;20057;-76
2022/11/04 12:30:07;;;;;;;9.15;4.75;;;21.50;99.90;;;;;;5037812;28;20498;-75
2022/11/04 12:32:49;;;;;;;8.77;4.18;;;22.00;99.90;;;;;;5048581;28;20056;-75
2022/11/04 12:35:39;;;;;;;8.55;4.97;;;22.50;99.90;;;;;;5046575;28;20098;-76
2022/11/04 12:38:16;;;;;;;9.88;4.95;;;22.70;99.90;;;;;;5049360;28;20045;-75
2022/11/04 12:41:04;;;;;;;9.45;5.22;;;22.90;99.90;;;;;;5035638;28;20053;-75
2022/11/04 12:43:44;;;;;;;11.52;4.88;;;22.70;98.30;;;;;;5069821;28;20052;-75
2022/11/04 12:46:47;;;;;;;8.35;5.00;;;22.80;99.90;;;;;;5037983;28;20048;-74
2022/11/04 12:49:45;;;;;;;9.30;4.80;;;23.20;99.90;;;;;;5034567;28;20050;-74
2022/11/04 12:52:32;;;;;;;9.07;4.85;;;23.50;99.90;;;;;;5039010;28;20068;-75
2022/11/04 12:55:30;;;;;;;11.10;4.90;;;23.60;99.90;;;;;;5044626;28;20051;-79
2022/11/04 12:58:36;;;;;;;10.07;4.45;;;23.80;99.90;;;;;;5044387;28;20731;-79
2022/11/04 13:01:07;;;;;;;11.23;4.57;;;24.30;98.00;;;;;;5019443;28;20086;-74
2022/11/04 13:03:54;;;;;;;9.23;4.57;;;24.80;99.90;;;;;;5040969;28;20064;-74
2022/11/04 13:06:28;;;;;;;11.15;4.45;;;25.20;99.90;;;;;;5042237;28;20048;-74
2022/11/04 13:09:08;;;;;;;5.25;1.90;;;25.20;99.90;;;;;;5042462;28;20038;-74
2022/11/04 13:11:45;;;;;;;1.85;0.57;;;24.30;67.20;;;;;;5059380;28;20042;-74
2022/11/04 13:14:28;;;;;;;1.45;0.40;;;23.80;94.50;;;;;;5046131;28;20052;-73
2022/11/04 13:17:02;;;;;;;4.18;0.63;;;22.70;79.60;;;;;;5044217;28;20478;-73
2022/11/04 13:19:37;;;;;;;1.40;0.68;;;21.10;99.90;;;;;;5046520;28;20045;-72
2022/11/04 13:22:13;;;;;;;3.83;0.63;;;19.70;99.90;;;;;;5040248;28;20055;-72
2022/11/04 13:24:53;;;;;;;1.92;0.70;;;18.20;93.50;;;;;;5082601;28;20201;-74
2022/11/04 13:27:22;;;;;;;3.40;0.70;;;16.90;99.90;;;;;;5062673;28;20049;-72
2022/11/04 13:29:49;;;;;;;3.70;0.82;;;15.80;99.90;;;;;;5085512;28;20048;-72
2022/11/04 13:32:52;;;;;;;1.20;0.70;;;14.70;99.90;;;;;;5036305;28;20057;-72
2022/11/04 13:35:38;;;;;;;4.32;0.88;;;13.80;99.90;;;;;;5042412;28;20135;-73
2022/11/04 13:38:11;;;;;;;2.00;0.77;;;13.20;99.90;;;;;;5031848;28;20085;-72
2022/11/04 13:41:15;;;;;;;2.08;0.77;;;12.80;99.90;;;;;;5033125;28;20042;-72
2022/11/04 13:43:49;;;;;;;3.78;0.70;;;12.40;99.90;;;;;;5033403;28;20091;-72
2022/11/04 13:46:22;;;;;;;1.80;0.77;;;12.30;99.90;;;;;;5081884;28;20057;-72
2022/11/04 13:49:29;;;;;;;1.45;0.70;;;12.30;99.90;;;;;;5031985;28;20089;-73
2022/11/04 13:52:05;;;;;;;1.48;0.85;;;12.30;99.90;;;;;;5033522;28;20063;-71